createdAt,value
2022-10-19T00:01:24.021Z,19.25
2022-10-19T00:04:27.060Z,23.25
2022-10-19T00:07:30.816Z,24.70
2022-10-19T00:10:33.963Z,22.48
2022-10-19T00:13:36.777Z,24.05
2022-10-19T00:16:40.241Z,24.67
2022-10-19T00:19:42.934Z,22.90
2022-10-19T00:22:45.894Z,20.03
2022-10-19T00:25:56.264Z,22.13
2022-10-19T00:28:59.290Z,19.58
2022-10-19T00:32:02.050Z,20.17
2022-10-19T00:35:05.255Z,19.60
2022-10-19T00:38:07.946Z,22.00
2022-10-19T00:41:10.833Z,23.23
2022-10-19T00:44:13.336Z,22.45
2022-10-19T00:47:19.065Z,18.55
2022-10-19T00:50:21.901Z,23.40
2022-10-19T00:53:27.351Z,22.83
2022-10-19T00:56:30.197Z,23.00
2022-10-19T00:59:35.038Z,23.05
2022-10-19T01:02:38.008Z,20.98
2022-10-19T01:05:41.692Z,21.25
2022-10-19T01:08:46.205Z,19.47
2022-10-19T01:12:09.761Z,22.83
2022-10-19T01:15:15.408Z,20.80
2022-10-19T01:18:30.188Z,19.05
2022-10-19T01:21:45.750Z,20.10
2022-10-19T01:25:09.160Z,21.53
2022-10-19T01:28:19.701Z,17.55
2022-10-19T01:31:32.019Z,19.40
2022-10-19T01:34:40.573Z,20.98
2022-10-19T01:37:51.845Z,21.05
2022-10-19T01:41:17.973Z,18.20
2022-10-19T01:44:33.388Z,17.75
2022-10-19T01:47:49.995Z,18.27
2022-10-19T01:50:55.136Z,20.17
2022-10-19T01:54:01.473Z,20.95
2022-10-19T01:57:07.890Z,18.40
2022-10-19T02:00:13.526Z,22.35
2022-10-19T02:03:18.648Z,33.17
2022-10-19T02:06:22.343Z,23.27
2022-10-19T02:09:25.046Z,21.75
2022-10-19T02:12:31.834Z,22.90
2022-10-19T02:15:39.717Z,19.55
2022-10-19T02:18:49.380Z,19.35
2022-10-19T02:21:52.626Z,20.92
2022-10-19T02:24:55.551Z,19.75
2022-10-19T02:27:58.515Z,22.87
2022-10-19T02:31:01.994Z,18.92
2022-10-19T02:34:07.739Z,21.92
2022-10-19T02:37:10.982Z,23.48
2022-10-19T02:40:13.724Z,22.67
2022-10-19T02:43:19.534Z,25.50
2022-10-19T02:47:04.006Z,23.25
2022-10-19T02:50:08.786Z,21.83
2022-10-19T02:53:11.471Z,24.17
2022-10-19T02:56:16.774Z,24.48
2022-10-19T02:59:19.495Z,22.27
2022-10-19T03:02:22.494Z,22.37
2022-10-19T03:05:25.149Z,26.40
2022-10-19T03:08:28.045Z,27.13
2022-10-19T03:11:31.228Z,22.25
2022-10-19T03:14:35.320Z,26.17
2022-10-19T03:17:37.893Z,26.83
2022-10-19T03:20:40.875Z,28.38
2022-10-19T03:23:43.525Z,27.23
2022-10-19T03:26:46.529Z,28.83
2022-10-19T03:29:49.308Z,29.47
2022-10-19T03:32:54.525Z,29.02
2022-10-19T03:36:28.310Z,26.77
2022-10-19T03:39:31.286Z,29.42
2022-10-19T03:42:33.976Z,26.02
2022-10-19T03:45:36.967Z,43.47
2022-10-19T03:48:39.515Z,84.20
2022-10-19T03:51:42.466Z,57.60
2022-10-19T03:54:45.887Z,72.22
2022-10-19T03:57:48.797Z,57.88
2022-10-19T04:00:52.265Z,42.63
2022-10-19T04:03:57.311Z,37.83
2022-10-19T04:07:00.010Z,36.80
2022-10-19T04:10:03.893Z,51.70
2022-10-19T04:13:06.521Z,111.93
2022-10-19T04:16:13.826Z,120.40
2022-10-19T04:19:17.858Z,106.70
2022-10-19T04:22:20.814Z,83.97
2022-10-19T04:25:24.402Z,65.20
2022-10-19T04:28:28.362Z,42.88
2022-10-19T04:31:31.168Z,40.43
2022-10-19T04:34:36.359Z,39.53
2022-10-19T04:37:41.832Z,44.60
2022-10-19T04:40:44.994Z,39.05
2022-10-19T04:43:48.562Z,36.60
2022-10-19T04:46:51.680Z,35.77
2022-10-19T04:49:54.274Z,36.58
2022-10-19T04:52:57.146Z,36.65
2022-10-19T04:56:00.283Z,35.25
2022-10-19T04:59:03.265Z,35.40
2022-10-19T05:02:05.871Z,37.87
2022-10-19T05:05:09.116Z,35.88
2022-10-19T05:08:11.986Z,38.60
2022-10-19T05:11:15.494Z,40.17
2022-10-19T05:14:20.463Z,38.75
2022-10-19T05:17:24.755Z,37.03
2022-10-19T05:20:27.625Z,39.15
2022-10-19T05:26:38.240Z,36.15
2022-10-19T05:29:42.733Z,39.03
2022-10-19T05:32:46.679Z,40.47
2022-10-19T05:35:49.597Z,39.97
2022-10-19T05:38:53.488Z,37.53
2022-10-19T05:41:56.557Z,41.92
2022-10-19T05:45:00.628Z,46.13
2022-10-19T05:48:03.690Z,46.93
2022-10-19T05:51:11.687Z,51.60
2022-10-19T05:54:15.506Z,45.15
2022-10-19T05:57:18.131Z,44.75
2022-10-19T06:00:21.072Z,37.95
2022-10-19T06:03:25.299Z,40.30
2022-10-19T06:06:28.379Z,37.35
2022-10-19T06:09:36.176Z,39.67
2022-10-19T06:12:38.797Z,90.78
2022-10-19T06:15:41.767Z,64.03
2022-10-19T06:18:45.050Z,57.47
2022-10-19T06:21:50.521Z,49.85
2022-10-19T06:24:53.151Z,82.12
2022-10-19T06:27:57.567Z,75.60
2022-10-19T06:31:00.670Z,63.87
2022-10-19T06:34:04.541Z,51.57
2022-10-19T06:37:08.198Z,40.83
2022-10-19T06:40:11.795Z,38.10
2022-10-19T06:43:14.477Z,39.60
2022-10-19T06:46:23.010Z,30.73
2022-10-19T06:49:25.694Z,30.23
2022-10-19T06:52:28.638Z,30.92
2022-10-19T06:55:31.281Z,31.35
2022-10-19T06:58:38.597Z,27.52
2022-10-19T07:01:41.250Z,25.65
2022-10-19T07:04:44.115Z,24.03
2022-10-19T07:07:46.828Z,28.92
2022-10-19T07:10:54.209Z,22.67
2022-10-19T07:13:56.953Z,22.92
2022-10-19T07:16:59.865Z,20.80
2022-10-19T07:20:05.318Z,22.50
2022-10-19T07:23:08.927Z,21.75
2022-10-19T07:26:17.557Z,21.80
2022-10-19T07:29:20.481Z,19.25
2022-10-19T07:32:23.102Z,20.37
2022-10-19T07:35:26.029Z,21.13
2022-10-19T07:38:30.334Z,23.10
2022-10-19T07:41:34.997Z,18.25
2022-10-19T07:44:37.689Z,17.60
2022-10-19T07:47:40.570Z,14.35
2022-10-19T07:50:48.173Z,12.70
2022-10-19T07:53:51.541Z,13.82
2022-10-19T07:56:54.183Z,14.18
2022-10-19T07:59:57.099Z,12.30
2022-10-19T08:03:43.261Z,11.73
2022-10-19T08:06:24.539Z,10.93
2022-10-19T08:09:51.348Z,12.05
2022-10-19T08:12:50.155Z,11.23
2022-10-19T08:15:52.746Z,9.55
2022-10-19T08:19:01.355Z,10.38
2022-10-19T08:22:03.960Z,11.83
2022-10-19T08:25:07.176Z,7.72
2022-10-19T08:28:09.826Z,8.05
2022-10-19T08:31:19.009Z,7.70
2022-10-19T08:34:21.886Z,10.00
2022-10-19T08:37:40.214Z,8.10
2022-10-19T08:40:47.548Z,8.75
2022-10-19T08:44:03.984Z,6.03
2022-10-19T08:47:23.307Z,7.03
2022-10-19T08:50:33.863Z,7.18
2022-10-19T08:53:56.352Z,10.50
2022-10-19T08:57:02.284Z,5.85
2022-10-19T09:00:36.949Z,5.25
2022-10-19T09:03:55.882Z,5.75
2022-10-19T09:07:07.906Z,4.97
2022-10-19T09:10:14.031Z,5.00
2022-10-19T09:13:18.281Z,8.05
2022-10-19T09:16:23.845Z,5.78
2022-10-19T09:19:31.078Z,6.87
2022-10-19T09:22:35.995Z,5.25
2022-10-19T09:25:39.904Z,6.83
2022-10-19T09:28:51.675Z,5.53
2022-10-19T09:35:30.649Z,6.47
2022-10-19T09:38:33.389Z,4.97
2022-10-19T09:41:36.641Z,5.60
2022-10-19T09:44:40.336Z,6.75
2022-10-19T09:47:48.029Z,4.10
2022-10-19T09:50:59.009Z,4.25
2022-10-19T09:54:02.102Z,5.57
2022-10-19T09:57:06.157Z,4.53
2022-10-19T10:00:18.034Z,6.45
2022-10-19T10:03:36.234Z,3.62
2022-10-19T10:06:41.102Z,3.95
2022-10-19T10:09:45.664Z,5.53
2022-10-19T10:12:50.106Z,6.70
2022-10-19T10:16:06.533Z,6.68
2022-10-19T10:19:13.744Z,6.80
2022-10-19T10:22:28.144Z,5.43
2022-10-19T10:25:34.341Z,4.10
2022-10-19T10:28:48.089Z,4.70
2022-10-19T10:32:03.978Z,4.22
2022-10-19T10:35:16.686Z,5.30
2022-10-19T10:38:25.392Z,4.93
2022-10-19T10:41:29.955Z,4.00
2022-10-19T10:44:36.680Z,5.47
2022-10-19T10:47:39.780Z,4.03
2022-10-19T10:50:45.015Z,4.25
2022-10-19T10:53:47.987Z,7.78
2022-10-19T10:57:17.039Z,5.55
2022-10-19T11:00:22.145Z,4.53
2022-10-19T11:03:30.661Z,7.28
2022-10-19T11:06:40.791Z,9.43
2022-10-19T11:09:58.375Z,5.55
2022-10-19T11:13:19.101Z,9.45
2022-10-19T11:16:31.374Z,6.67
2022-10-19T11:19:44.633Z,9.07
2022-10-19T11:23:02.327Z,13.88
2022-10-19T11:26:36.882Z,6.78
2022-10-19T11:29:57.681Z,15.18
2022-10-19T11:33:25.480Z,9.77
2022-10-19T11:36:54.194Z,8.20
2022-10-19T11:40:21.986Z,6.07
2022-10-19T11:43:40.322Z,8.20
2022-10-19T11:47:03.121Z,7.45
2022-10-19T11:50:32.117Z,10.40
2022-10-19T11:54:04.751Z,8.85
2022-10-19T11:57:18.906Z,8.60
2022-10-19T12:00:38.244Z,10.48
2022-10-19T12:04:06.041Z,9.57
2022-10-19T12:07:15.992Z,13.83
2022-10-19T12:10:46.505Z,9.80
2022-10-19T12:13:57.177Z,6.68
2022-10-19T12:17:08.234Z,13.02
2022-10-19T12:20:25.705Z,7.72
2022-10-19T12:23:34.929Z,5.37
2022-10-19T12:26:40.831Z,7.18
2022-10-19T12:29:49.159Z,5.37
2022-10-19T12:33:16.802Z,6.72
2022-10-19T12:36:45.758Z,9.75
2022-10-19T12:40:01.059Z,9.03
2022-10-19T12:43:24.641Z,10.35
2022-10-19T12:46:48.393Z,8.20
2022-10-19T12:49:56.025Z,6.97
2022-10-19T12:52:58.704Z,7.00
2022-10-19T12:56:21.916Z,6.63
2022-10-19T12:59:31.352Z,5.45
2022-10-19T13:02:37.387Z,7.68
2022-10-19T13:05:40.224Z,5.85
2022-10-19T13:08:58.041Z,8.40
2022-10-19T13:12:19.718Z,9.40
2022-10-19T13:15:35.195Z,6.03
2022-10-19T13:18:59.805Z,8.65
2022-10-19T13:22:02.807Z,5.93
2022-10-19T13:25:17.785Z,7.95
2022-10-19T13:28:36.569Z,6.97
2022-10-19T13:31:39.203Z,9.48
2022-10-19T13:34:42.325Z,7.10
2022-10-19T13:37:45.164Z,8.05
2022-10-19T13:40:47.953Z,5.60
2022-10-19T13:44:09.276Z,9.40
2022-10-19T13:47:24.581Z,7.78
2022-10-19T13:50:38.588Z,7.12
2022-10-19T13:54:16.676Z,6.90
2022-10-19T13:57:48.862Z,7.60
2022-10-19T14:01:04.608Z,11.63
2022-10-19T14:04:30.653Z,7.55
2022-10-19T14:07:43.750Z,10.45
2022-10-19T14:11:01.142Z,10.15
2022-10-19T14:14:14.586Z,8.75
2022-10-19T14:17:34.175Z,6.43
2022-10-19T14:20:39.240Z,5.82
2022-10-19T14:23:42.911Z,9.35
2022-10-19T14:26:46.944Z,6.30
2022-10-19T14:29:52.189Z,9.35
2022-10-19T14:32:59.405Z,8.83
2022-10-19T14:36:07.441Z,8.65
2022-10-19T14:39:24.628Z,11.00
2022-10-19T14:42:45.837Z,8.68
2022-10-19T14:46:06.408Z,8.10
2022-10-19T14:49:11.381Z,8.77
2022-10-19T14:52:25.123Z,5.57
2022-10-19T14:55:35.218Z,5.78
2022-10-19T14:59:00.849Z,6.72
2022-10-19T15:02:30.024Z,9.38
2022-10-19T15:05:36.445Z,9.73
2022-10-19T15:08:48.777Z,13.73
2022-10-19T15:11:53.888Z,7.18
2022-10-19T15:14:57.911Z,6.40
2022-10-19T15:18:00.559Z,7.75
2022-10-19T15:21:18.492Z,7.10
2022-10-19T15:24:28.352Z,6.40
2022-10-19T15:27:36.932Z,8.07
2022-10-19T15:30:39.740Z,5.25
2022-10-19T15:33:49.660Z,6.47
2022-10-19T15:36:58.086Z,10.50
2022-10-19T15:40:10.361Z,6.20
2022-10-19T15:43:31.137Z,9.65
2022-10-19T15:46:46.172Z,5.68
2022-10-19T15:49:55.913Z,6.20
2022-10-19T15:52:59.963Z,5.37
2022-10-19T15:59:16.835Z,5.90
2022-10-19T16:02:20.381Z,7.62
2022-10-19T16:05:25.419Z,8.48
2022-10-19T16:08:28.193Z,5.87
2022-10-19T16:11:33.663Z,8.88
2022-10-19T16:14:36.790Z,9.15
2022-10-19T16:17:40.516Z,8.18
2022-10-19T16:20:43.437Z,6.72
2022-10-19T16:23:47.047Z,9.43
2022-10-19T16:26:49.636Z,9.25
2022-10-19T16:29:52.482Z,7.40
2022-10-19T16:32:55.042Z,8.27
2022-10-19T16:35:57.988Z,8.15
2022-10-19T16:39:01.436Z,7.60
2022-10-19T16:42:05.056Z,8.25
2022-10-19T16:45:08.887Z,6.47
2022-10-19T16:48:14.608Z,7.75
2022-10-19T16:51:43.279Z,7.60
2022-10-19T16:54:46.263Z,8.27
2022-10-19T16:57:52.591Z,8.63
2022-10-19T17:00:59.828Z,8.48
2022-10-19T17:04:02.888Z,8.60
2022-10-19T17:07:06.953Z,5.22
2022-10-19T17:10:12.961Z,9.07
2022-10-19T17:13:17.078Z,5.93
2022-10-19T17:16:21.519Z,11.20
2022-10-19T17:19:25.536Z,6.68
2022-10-19T17:22:28.891Z,6.47
2022-10-19T17:25:32.325Z,7.90
2022-10-19T17:28:36.943Z,7.57
2022-10-19T17:31:41.750Z,8.05
2022-10-19T17:34:44.851Z,7.53
2022-10-19T17:37:48.666Z,10.35
2022-10-19T17:40:51.439Z,8.57
2022-10-19T17:43:54.824Z,5.93
2022-10-19T17:46:57.978Z,7.25
2022-10-19T17:50:04.189Z,9.55
2022-10-19T17:53:08.277Z,7.05
2022-10-19T17:56:17.554Z,9.83
2022-10-19T17:59:30.071Z,6.45
2022-10-19T18:02:38.530Z,7.47
2022-10-19T18:05:42.056Z,7.93
2022-10-19T18:08:48.549Z,7.93
2022-10-19T18:11:53.124Z,5.23
2022-10-19T18:14:56.691Z,7.85
2022-10-19T18:18:00.936Z,7.32
2022-10-19T18:21:09.645Z,5.93
2022-10-19T18:24:19.869Z,7.43
2022-10-19T18:27:24.601Z,7.50
2022-10-19T18:30:28.400Z,8.25
2022-10-19T18:33:35.923Z,7.30
2022-10-19T18:36:39.443Z,8.13
2022-10-19T18:39:42.586Z,6.87
2022-10-19T18:42:46.281Z,5.97
2022-10-19T18:45:54.756Z,8.50
2022-10-19T18:48:58.809Z,7.87
2022-10-19T18:52:02.467Z,10.07
2022-10-19T18:55:06.944Z,9.00
2022-10-19T18:58:11.060Z,7.17
2022-10-19T19:01:23.646Z,6.35
2022-10-19T19:04:26.947Z,7.37
2022-10-19T19:07:32.656Z,5.57
2022-10-19T19:10:35.317Z,6.12
2022-10-19T19:13:39.312Z,7.27
2022-10-19T19:16:43.925Z,7.78
2022-10-19T19:19:47.508Z,7.20
2022-10-19T19:22:50.566Z,6.65
2022-10-19T19:25:57.034Z,6.43
2022-10-19T19:29:05.368Z,5.77
2022-10-19T19:32:15.792Z,5.10
2022-10-19T19:35:19.549Z,7.32
2022-10-19T19:38:25.486Z,5.45
2022-10-19T19:41:34.655Z,7.82
2022-10-19T19:44:38.792Z,7.63
2022-10-19T19:47:42.638Z,6.30
2022-10-19T19:50:47.456Z,10.13
2022-10-19T19:53:51.618Z,6.62
2022-10-19T19:56:55.117Z,7.28
2022-10-19T19:59:58.265Z,8.37
2022-10-19T20:03:01.634Z,11.18
2022-10-19T20:06:05.809Z,7.37
2022-10-19T20:09:09.614Z,9.05
2022-10-19T20:12:13.050Z,8.35
2022-10-19T20:15:18.609Z,17.40
2022-10-19T20:18:23.224Z,5.97
2022-10-19T20:21:28.321Z,8.60
2022-10-19T20:24:33.039Z,8.35
2022-10-19T20:27:38.805Z,5.72
2022-10-19T20:30:44.952Z,7.63
2022-10-19T20:33:48.656Z,8.25
2022-10-19T20:36:52.081Z,8.07
2022-10-19T20:39:55.152Z,7.85
2022-10-19T20:42:58.157Z,7.20
2022-10-19T20:46:14.951Z,8.90
2022-10-19T20:49:18.402Z,6.78
2022-10-19T20:52:21.492Z,12.27
2022-10-19T20:55:24.492Z,11.45
2022-10-19T20:58:27.161Z,9.27
2022-10-19T21:01:33.940Z,6.87
2022-10-19T21:04:36.676Z,7.68
2022-10-19T21:07:40.752Z,7.68
2022-10-19T21:10:43.506Z,7.50
2022-10-19T21:13:47.360Z,7.78
2022-10-19T21:16:50.487Z,8.87
2022-10-19T21:19:57.149Z,9.10
2022-10-19T21:23:00.070Z,10.43
2022-10-19T21:26:03.167Z,9.75
2022-10-19T21:29:09.706Z,11.60
2022-10-19T21:32:12.528Z,7.90
2022-10-19T21:35:15.178Z,9.07
2022-10-19T21:38:18.103Z,10.27
2022-10-19T21:41:25.416Z,8.27
2022-10-19T21:44:30.430Z,9.48
2022-10-19T21:47:33.233Z,10.37
2022-10-19T21:50:36.509Z,8.13
2022-10-19T21:53:39.105Z,7.32
2022-10-19T21:56:42.235Z,11.43
2022-10-19T21:59:44.817Z,9.52
2022-10-19T22:02:48.837Z,6.07
2022-10-19T22:05:52.826Z,12.85
2022-10-19T22:08:55.716Z,7.78
2022-10-19T22:11:58.672Z,7.60
2022-10-19T22:15:01.264Z,6.07
2022-10-19T22:18:04.358Z,6.47
2022-10-19T22:21:10.378Z,8.73
2022-10-19T22:24:15.644Z,8.63
2022-10-19T22:27:18.287Z,8.85
2022-10-19T22:30:21.233Z,8.70
2022-10-19T22:33:25.312Z,8.00
2022-10-19T22:36:29.775Z,8.93
2022-10-19T22:39:32.565Z,9.18
2022-10-19T22:42:35.847Z,11.75
2022-10-19T22:45:38.814Z,12.15
2022-10-19T22:48:43.294Z,7.93
2022-10-19T22:51:46.002Z,11.70
2022-10-19T22:54:50.736Z,10.82
2022-10-19T22:57:53.772Z,10.85
2022-10-19T23:01:06.074Z,10.45
2022-10-19T23:04:08.859Z,8.63
2022-10-19T23:07:13.329Z,10.68
2022-10-19T23:10:16.435Z,13.55
2022-10-19T23:13:19.472Z,12.43
2022-10-19T23:16:22.192Z,9.63
2022-10-19T23:19:26.391Z,13.47
2022-10-19T23:22:29.070Z,8.45
2022-10-19T23:28:42.944Z,11.35
2022-10-19T23:31:46.021Z,11.30
2022-10-19T23:34:49.761Z,12.17
2022-10-19T23:37:52.829Z,9.32
2022-10-19T23:40:55.520Z,8.82
2022-10-19T23:43:59.899Z,10.10
2022-10-19T23:47:02.438Z,11.50
2022-10-19T23:50:05.724Z,11.70
2022-10-19T23:53:08.483Z,9.98
2022-10-19T23:56:17.944Z,9.35
2022-10-19T23:59:20.746Z,13.88
